Time;durP1;ratioP1;P1;durP2;ratioP2;P2;SDS_P1;SDS_P2;PMS_P1;PMS_P2;Temp;Humidity;BMP_temperature;BMP_pressure;BME280_temperature;BME280_humidity;BME280_pressure;Samples;Min_cycle;Max_cycle;Signal;HPM_P1;HPM_P2
2023/12/29 00:00:06;;;;;;;7.87;6.50;;;;;;;;;;5024206;28;20268;-79
2023/12/29 00:02:32;;;;;;;8.30;6.33;;;;;;;;;;5029322;28;20266;-79
2023/12/29 00:04:59;;;;;;;7.60;6.33;;;;;;;;;;5023229;28;20209;-79
2023/12/29 00:07:25;;;;;;;9.67;6.70;;;;;;;;;;5027048;28;20313;-79
2023/12/29 00:09:51;;;;;;;7.27;6.17;;;;;;;;;;5023533;28;20186;-79
2023/12/29 00:12:17;;;;;;;7.43;6.07;;;;;;;;;;5024919;28;20293;-79
2023/12/29 00:14:43;;;;;;;8.23;6.40;;;;;;;;;;5025681;28;20186;-79
2023/12/29 00:17:09;;;;;;;7.37;6.40;;;;;;;;;;5020077;28;20439;-79
2023/12/29 00:19:36;;;;;;;8.47;5.67;;;;;;;;;;5019793;28;20207;-79
2023/12/29 00:22:03;;;;;;;7.60;6.20;;;;;;;;;;5023043;28;20213;-79
2023/12/29 00:24:33;;;;;;;9.47;6.93;;;;;;;;;;5021030;28;20193;-79
2023/12/29 00:27:00;;;;;;;8.80;6.57;;;;;;;;;;5025424;28;20248;-79
2023/12/29 00:29:31;;;;;;;10.00;6.83;;;;;;;;;;5028918;28;20225;-79
2023/12/29 00:31:58;;;;;;;8.00;6.80;;;;;;;;;;5022739;28;20259;-79
2023/12/29 00:34:24;;;;;;;6.87;5.83;;;;;;;;;;5024974;28;20651;-79
2023/12/29 00:36:50;;;;;;;7.13;5.97;;;;;;;;;;5020797;28;20194;-79
2023/12/29 00:39:16;;;;;;;10.47;7.63;;;;;;;;;;5023736;28;20178;-79
2023/12/29 00:41:43;;;;;;;11.70;7.60;;;;;;;;;;5024305;28;20220;-79
2023/12/29 00:44:09;;;;;;;9.37;6.90;;;;;;;;;;5028017;28;20233;-79
2023/12/29 00:46:36;;;;;;;8.57;6.77;;;;;;;;;;5022465;28;20182;-79
2023/12/29 00:49:02;;;;;;;8.23;6.30;;;;;;;;;;5025991;28;20642;-79
2023/12/29 00:51:28;;;;;;;7.40;5.90;;;;;;;;;;5022733;28;20211;-79
2023/12/29 00:53:54;;;;;;;12.03;8.53;;;;;;;;;;5027508;28;20178;-79
2023/12/29 00:56:20;;;;;;;7.77;6.93;;;;;;;;;;5025569;28;20305;-79
2023/12/29 00:58:47;;;;;;;10.73;6.83;;;;;;;;;;5010033;28;20714;-79
2023/12/29 01:01:13;;;;;;;8.77;5.80;;;;;;;;;;5004679;28;20242;-79
2023/12/29 01:03:39;;;;;;;10.87;7.80;;;;;;;;;;5010279;28;20210;-79
2023/12/29 01:06:06;;;;;;;8.17;6.63;;;;;;;;;;5023152;28;20398;-79
2023/12/29 01:08:33;;;;;;;8.40;6.80;;;;;;;;;;5039877;28;20182;-79
2023/12/29 01:10:59;;;;;;;7.13;6.30;;;;;;;;;;5019617;28;20269;-79
2023/12/29 01:13:25;;;;;;;8.30;6.97;;;;;;;;;;5006536;28;20528;-79
2023/12/29 01:15:51;;;;;;;7.10;5.83;;;;;;;;;;5020649;28;20710;-80
2023/12/29 01:18:17;;;;;;;9.97;6.67;;;;;;;;;;5010172;28;20190;-79
2023/12/29 01:20:44;;;;;;;7.20;5.80;;;;;;;;;;5022794;28;20233;-79
2023/12/29 01:23:10;;;;;;;7.97;6.37;;;;;;;;;;5021480;28;20214;-80
2023/12/29 01:25:36;;;;;;;7.77;6.57;;;;;;;;;;5004931;28;20309;-80
2023/12/29 01:28:02;;;;;;;8.13;6.67;;;;;;;;;;5028799;28;20189;-79
2023/12/29 01:30:29;;;;;;;8.30;6.53;;;;;;;;;;4999054;28;20249;-79
2023/12/29 01:32:55;;;;;;;8.90;6.30;;;;;;;;;;5005867;28;20202;-79
2023/12/29 01:35:22;;;;;;;7.87;6.27;;;;;;;;;;4996566;28;20205;-79
2023/12/29 01:37:48;;;;;;;8.07;6.40;;;;;;;;;;5025848;28;20214;-79
2023/12/29 01:40:14;;;;;;;7.80;6.83;;;;;;;;;;5029598;28;20202;-79
2023/12/29 01:42:42;;;;;;;8.30;6.07;;;;;;;;;;5028337;28;20229;-79
2023/12/29 01:45:15;;;;;;;7.97;6.80;;;;;;;;;;5022485;28;20257;-79
2023/12/29 01:47:41;;;;;;;8.17;6.93;;;;;;;;;;5023272;28;20210;-79
2023/12/29 01:50:08;;;;;;;7.10;6.40;;;;;;;;;;5024784;28;20268;-79
2023/12/29 01:52:35;;;;;;;8.10;6.40;;;;;;;;;;5019325;28;20240;-79
2023/12/29 01:55:01;;;;;;;10.77;7.40;;;;;;;;;;5022573;28;20214;-79
2023/12/29 01:57:27;;;;;;;9.13;6.47;;;;;;;;;;5011116;28;20191;-79
2023/12/29 01:59:53;;;;;;;29.73;20.90;;;;;;;;;;5006234;28;20191;-79
2023/12/29 02:02:20;;;;;;;16.47;11.50;;;;;;;;;;5027096;28;20210;-79
2023/12/29 02:04:46;;;;;;;10.93;7.77;;;;;;;;;;5024121;28;20195;-79
2023/12/29 02:07:12;;;;;;;8.60;6.40;;;;;;;;;;5023165;28;20241;-79
2023/12/29 02:09:39;;;;;;;8.00;6.47;;;;;;;;;;5023479;28;20218;-80
2023/12/29 02:12:05;;;;;;;9.80;6.83;;;;;;;;;;5015898;28;20229;-79
2023/12/29 02:14:32;;;;;;;10.60;6.93;;;;;;;;;;5039257;28;20212;-80
2023/12/29 02:17:24;;;;;;;10.17;7.10;;;;;;;;;;5016266;28;20221;-79
2023/12/29 02:19:52;;;;;;;11.27;7.33;;;;;;;;;;5018748;28;20190;-79
2023/12/29 02:22:18;;;;;;;11.30;7.47;;;;;;;;;;5022058;28;20310;-79
2023/12/29 02:24:51;;;;;;;8.53;6.47;;;;;;;;;;5020669;28;20190;-79
2023/12/29 02:27:37;;;;;;;8.93;6.23;;;;;;;;;;5022820;28;20198;-79
2023/12/29 02:30:08;;;;;;;9.73;6.60;;;;;;;;;;5007368;28;20689;-79
2023/12/29 02:32:36;;;;;;;8.53;7.20;;;;;;;;;;5002447;28;20314;-79
2023/12/29 02:35:03;;;;;;;8.80;6.47;;;;;;;;;;5003768;28;20269;-79
2023/12/29 02:37:30;;;;;;;8.43;6.33;;;;;;;;;;5024465;28;20691;-79
2023/12/29 02:39:56;;;;;;;9.13;6.30;;;;;;;;;;5023556;28;20273;-79
2023/12/29 02:42:22;;;;;;;9.20;6.23;;;;;;;;;;5026108;28;20214;-79
2023/12/29 02:44:49;;;;;;;7.23;6.37;;;;;;;;;;5004770;28;20182;-79
2023/12/29 02:47:16;;;;;;;6.70;6.00;;;;;;;;;;5026945;28;20554;-79
2023/12/29 02:49:43;;;;;;;8.93;6.53;;;;;;;;;;5021626;28;20210;-79
2023/12/29 02:52:09;;;;;;;7.07;6.37;;;;;;;;;;5026322;28;20202;-79
2023/12/29 02:54:35;;;;;;;7.33;6.00;;;;;;;;;;5020997;28;20182;-79
2023/12/29 02:57:01;;;;;;;7.47;6.40;;;;;;;;;;4990804;28;20187;-79
2023/12/29 02:59:27;;;;;;;6.87;6.10;;;;;;;;;;5027740;28;20182;-79
2023/12/29 03:01:53;;;;;;;9.30;5.83;;;;;;;;;;5025851;28;20206;-79
2023/12/29 03:04:19;;;;;;;7.10;6.40;;;;;;;;;;5023594;28;20218;-79
2023/12/29 03:06:45;;;;;;;8.50;6.20;;;;;;;;;;5025082;28;20179;-79
2023/12/29 03:09:12;;;;;;;7.20;6.50;;;;;;;;;;5025258;28;20272;-79
2023/12/29 03:11:38;;;;;;;6.73;6.03;;;;;;;;;;4998506;28;20203;-79
2023/12/29 03:14:04;;;;;;;8.33;6.03;;;;;;;;;;5031155;28;20221;-79
2023/12/29 03:16:30;;;;;;;6.07;5.47;;;;;;;;;;5025595;28;20193;-79
2023/12/29 03:18:56;;;;;;;7.13;5.60;;;;;;;;;;5028769;28;20278;-79
2023/12/29 03:21:22;;;;;;;6.17;5.20;;;;;;;;;;5009540;28;20285;-79
2023/12/29 03:23:48;;;;;;;6.30;5.30;;;;;;;;;;5022261;28;20212;-79
2023/12/29 03:26:14;;;;;;;6.30;5.20;;;;;;;;;;5023953;28;20209;-79
2023/12/29 03:28:41;;;;;;;5.97;5.20;;;;;;;;;;5023327;28;20231;-79
2023/12/29 03:31:07;;;;;;;6.17;5.57;;;;;;;;;;5027365;28;20203;-79
2023/12/29 03:33:33;;;;;;;7.03;5.43;;;;;;;;;;4994323;28;20253;-80
2023/12/29 03:35:59;;;;;;;9.77;6.30;;;;;;;;;;5007977;28;20187;-79
2023/12/29 03:38:25;;;;;;;6.73;5.20;;;;;;;;;;5044812;28;20186;-79
2023/12/29 03:40:51;;;;;;;5.30;4.67;;;;;;;;;;5027871;28;20223;-79
2023/12/29 03:43:19;;;;;;;6.37;5.00;;;;;;;;;;5011760;28;20210;-80
2023/12/29 03:45:45;;;;;;;5.80;5.00;;;;;;;;;;5028525;28;20276;-79
2023/12/29 03:48:12;;;;;;;6.40;4.70;;;;;;;;;;5026789;28;20647;-79
2023/12/29 03:50:38;;;;;;;6.33;4.93;;;;;;;;;;5027950;28;20202;-79
2023/12/29 03:53:05;;;;;;;5.70;4.60;;;;;;;;;;5026156;28;20198;-79
2023/12/29 03:55:31;;;;;;;5.83;4.73;;;;;;;;;;5020541;28;20183;-79
2023/12/29 03:57:57;;;;;;;5.23;4.57;;;;;;;;;;5022084;28;20193;-79
2023/12/29 04:00:24;;;;;;;5.43;4.73;;;;;;;;;;5021334;28;20287;-79
2023/12/29 04:02:50;;;;;;;5.90;5.10;;;;;;;;;;5025947;28;20324;-79
2023/12/29 04:05:17;;;;;;;5.57;4.43;;;;;;;;;;5027265;28;20182;-79
2023/12/29 04:07:43;;;;;;;5.63;4.30;;;;;;;;;;5028517;28;20186;-79
2023/12/29 04:10:09;;;;;;;5.33;4.37;;;;;;;;;;5026568;28;20661;-79
2023/12/29 04:12:35;;;;;;;4.77;4.00;;;;;;;;;;5025576;28;20240;-79
2023/12/29 04:15:02;;;;;;;8.10;4.63;;;;;;;;;;5006109;28;20266;-79
2023/12/29 04:17:28;;;;;;;6.43;4.70;;;;;;;;;;5023823;28;20200;-79
2023/12/29 04:19:54;;;;;;;7.03;4.83;;;;;;;;;;5024878;28;20188;-79
2023/12/29 04:22:20;;;;;;;5.40;4.23;;;;;;;;;;5009279;28;20254;-79
2023/12/29 04:24:46;;;;;;;5.10;4.60;;;;;;;;;;5026269;28;20179;-79
2023/12/29 04:27:12;;;;;;;5.23;4.30;;;;;;;;;;5023816;28;20600;-79
2023/12/29 04:29:40;;;;;;;5.83;4.53;;;;;;;;;;5028529;28;20265;-80
2023/12/29 04:32:06;;;;;;;5.63;4.70;;;;;;;;;;4994117;28;20203;-79
2023/12/29 04:34:32;;;;;;;4.97;4.47;;;;;;;;;;5023723;28;20191;-79
2023/12/29 04:36:59;;;;;;;6.17;4.33;;;;;;;;;;5024062;28;20612;-79
2023/12/29 04:39:26;;;;;;;8.10;5.47;;;;;;;;;;5010004;28;20183;-79
2023/12/29 04:41:52;;;;;;;5.60;4.67;;;;;;;;;;5041219;28;20206;-79
2023/12/29 04:44:18;;;;;;;5.90;5.27;;;;;;;;;;5016040;28;20588;-79
2023/12/29 04:46:44;;;;;;;6.37;5.27;;;;;;;;;;5022328;28;20873;-80
2023/12/29 04:49:10;;;;;;;6.80;5.47;;;;;;;;;;5026508;28;20231;-79
2023/12/29 04:51:37;;;;;;;6.17;5.30;;;;;;;;;;5023272;28;20199;-79
2023/12/29 04:54:03;;;;;;;6.70;5.67;;;;;;;;;;5024015;28;20194;-79
2023/12/29 04:56:29;;;;;;;6.93;6.00;;;;;;;;;;5025863;28;20979;-79
2023/12/29 04:58:56;;;;;;;7.37;6.07;;;;;;;;;;5007441;28;20226;-79
2023/12/29 05:01:22;;;;;;;7.40;6.20;;;;;;;;;;5025265;28;20721;-79
2023/12/29 05:03:48;;;;;;;6.97;6.00;;;;;;;;;;5026821;28;20234;-79
2023/12/29 05:06:14;;;;;;;7.88;5.78;;;;;;;;;;5025142;28;20414;-79
2023/12/29 05:08:41;;;;;;;6.10;5.13;;;;;;;;;;5027991;28;20260;-79
2023/12/29 05:11:07;;;;;;;7.20;5.53;;;;;;;;;;5025181;28;20210;-79
2023/12/29 05:13:33;;;;;;;6.37;5.13;;;;;;;;;;5024288;28;20281;-80
2023/12/29 05:15:59;;;;;;;7.00;5.50;;;;;;;;;;5021366;28;20266;-80
2023/12/29 05:18:29;;;;;;;6.67;5.80;;;;;;;;;;4996572;28;20507;-79
2023/12/29 05:20:55;;;;;;;7.50;6.23;;;;;;;;;;4991609;28;20218;-79
2023/12/29 05:23:22;;;;;;;7.47;5.67;;;;;;;;;;5039488;28;20603;-79
2023/12/29 05:25:48;;;;;;;7.07;5.73;;;;;;;;;;5028258;28;20189;-79
2023/12/29 05:28:14;;;;;;;8.17;6.00;;;;;;;;;;5024968;28;20265;-79
2023/12/29 05:30:40;;;;;;;7.67;5.73;;;;;;;;;;5020293;28;20358;-79
2023/12/29 05:33:06;;;;;;;7.27;6.07;;;;;;;;;;5023162;28;20190;-79
2023/12/29 05:35:32;;;;;;;6.80;5.57;;;;;;;;;;5026136;28;20191;-80
2023/12/29 05:37:58;;;;;;;6.90;6.20;;;;;;;;;;5025653;28;20186;-80
2023/12/29 05:40:24;;;;;;;6.17;5.47;;;;;;;;;;5007593;28;20685;-79
2023/12/29 05:42:51;;;;;;;6.50;5.80;;;;;;;;;;5020136;28;20206;-79
2023/12/29 05:45:17;;;;;;;7.90;6.23;;;;;;;;;;5021424;28;20426;-79
2023/12/29 05:47:44;;;;;;;6.53;5.80;;;;;;;;;;5024300;28;20689;-79
2023/12/29 05:50:10;;;;;;;7.03;5.70;;;;;;;;;;5023098;28;20187;-79
2023/12/29 05:52:36;;;;;;;8.03;5.87;;;;;;;;;;5026285;28;20265;-79
2023/12/29 05:55:02;;;;;;;7.43;6.27;;;;;;;;;;5020183;28;20252;-79
2023/12/29 05:57:29;;;;;;;6.93;5.70;;;;;;;;;;5020423;28;20241;-79
2023/12/29 05:59:55;;;;;;;6.00;5.40;;;;;;;;;;5027851;28;20198;-79
2023/12/29 06:02:21;;;;;;;7.80;6.33;;;;;;;;;;5022249;28;20246;-79
2023/12/29 06:04:48;;;;;;;6.47;5.13;;;;;;;;;;5028785;28;20635;-79
2023/12/29 06:07:14;;;;;;;6.17;5.30;;;;;;;;;;5025197;28;20177;-78
2023/12/29 06:09:40;;;;;;;5.27;4.77;;;;;;;;;;4989707;28;20213;-79
2023/12/29 06:12:07;;;;;;;5.57;4.87;;;;;;;;;;5018772;28;20232;-79
2023/12/29 06:14:33;;;;;;;5.73;5.13;;;;;;;;;;5005548;28;20205;-79
2023/12/29 06:17:00;;;;;;;5.40;4.90;;;;;;;;;;5001094;28;20399;-79
2023/12/29 06:19:28;;;;;;;5.73;5.13;;;;;;;;;;5021273;28;20191;-79
2023/12/29 06:21:54;;;;;;;6.73;5.10;;;;;;;;;;5001414;28;20202;-79
2023/12/29 06:24:20;;;;;;;5.57;4.97;;;;;;;;;;5015274;28;20209;-79
2023/12/29 06:26:47;;;;;;;6.00;4.93;;;;;;;;;;5014978;28;20286;-81
2023/12/29 06:29:14;;;;;;;5.53;5.03;;;;;;;;;;5019015;28;20236;-81
2023/12/29 06:31:41;;;;;;;6.13;4.60;;;;;;;;;;5023561;28;20623;-81
2023/12/29 06:34:08;;;;;;;5.27;4.53;;;;;;;;;;5025583;28;20203;-81
2023/12/29 06:36:34;;;;;;;5.13;4.57;;;;;;;;;;5019544;28;20650;-81
2023/12/29 06:39:00;;;;;;;4.83;4.40;;;;;;;;;;5022485;28;20183;-79
2023/12/29 06:41:26;;;;;;;5.73;4.73;;;;;;;;;;5015358;28;20367;-79
2023/12/29 06:43:52;;;;;;;5.25;4.75;;;;;;;;;;5019928;28;20445;-79
2023/12/29 06:46:18;;;;;;;7.30;5.23;;;;;;;;;;5004267;28;20187;-79
2023/12/29 06:48:45;;;;;;;5.63;5.13;;;;;;;;;;5029751;28;20182;-81
2023/12/29 06:51:16;;;;;;;5.43;4.57;;;;;;;;;;5025852;28;20202;-79
2023/12/29 06:53:43;;;;;;;5.40;4.90;;;;;;;;;;5024967;28;20520;-79
2023/12/29 06:56:13;;;;;;;6.67;5.23;;;;;;;;;;5021755;28;20269;-79
2023/12/29 06:58:39;;;;;;;6.00;5.40;;;;;;;;;;5027208;28;20189;-79
2023/12/29 07:01:05;;;;;;;5.50;4.83;;;;;;;;;;5026494;28;20220;-75
2023/12/29 07:03:31;;;;;;;5.30;4.70;;;;;;;;;;5029917;28;20797;-78
2023/12/29 07:06:01;;;;;;;6.70;5.17;;;;;;;;;;5027992;28;20186;-75
2023/12/29 07:08:28;;;;;;;5.35;4.85;;;;;;;;;;5026512;28;20417;-77
2023/12/29 07:10:54;;;;;;;5.50;5.00;;;;;;;;;;5042743;28;20209;-75
2023/12/29 07:13:21;;;;;;;4.90;4.40;;;;;;;;;;5027532;28;20182;-75
2023/12/29 07:15:48;;;;;;;5.00;4.50;;;;;;;;;;5035263;28;20438;-76
2023/12/29 07:18:14;;;;;;;6.03;4.90;;;;;;;;;;5031864;28;20269;-75
2023/12/29 07:20:41;;;;;;;4.53;4.13;;;;;;;;;;5030862;28;20222;-75
2023/12/29 07:23:07;;;;;;;5.47;4.50;;;;;;;;;;5030161;28;20725;-76
2023/12/29 07:25:33;;;;;;;4.97;4.20;;;;;;;;;;5024303;28;20194;-78
2023/12/29 07:28:00;;;;;;;5.20;4.70;;;;;;;;;;5030462;28;20226;-77
2023/12/29 07:30:26;;;;;;;4.93;4.33;;;;;;;;;;5026360;28;20182;-77
2023/12/29 07:32:53;;;;;;;5.83;4.20;;;;;;;;;;5025321;28;20210;-76
2023/12/29 07:35:19;;;;;;;4.87;3.53;;;;;;;;;;5023576;28;20191;-76
2023/12/29 07:37:46;;;;;;;4.40;3.70;;;;;;;;;;5029975;28;20241;-83
2023/12/29 07:40:13;;;;;;;4.10;3.67;;;;;;;;;;5027687;28;20206;-76
2023/12/29 07:42:40;;;;;;;4.30;3.63;;;;;;;;;;5031833;28;20211;-78
2023/12/29 07:45:07;;;;;;;5.13;3.47;;;;;;;;;;5031480;28;20183;-77
2023/12/29 07:47:33;;;;;;;3.87;3.30;;;;;;;;;;5030865;28;20183;-77
2023/12/29 07:49:59;;;;;;;3.90;3.10;;;;;;;;;;5029663;28;20813;-77
2023/12/29 07:52:26;;;;;;;4.23;3.83;;;;;;;;;;5024712;28;20288;-77
2023/12/29 07:54:52;;;;;;;4.30;3.70;;;;;;;;;;5030392;28;20222;-77
2023/12/29 07:57:18;;;;;;;4.40;3.90;;;;;;;;;;5028199;28;20179;-79
2023/12/29 07:59:44;;;;;;;4.30;3.80;;;;;;;;;;5021604;28;20192;-77
2023/12/29 08:02:10;;;;;;;6.43;3.67;;;;;;;;;;5019594;28;20281;-77
2023/12/29 08:04:37;;;;;;;5.00;3.70;;;;;;;;;;5018933;28;20178;-77
2023/12/29 08:07:03;;;;;;;4.83;3.40;;;;;;;;;;5024871;28;20190;-77
2023/12/29 08:09:29;;;;;;;3.90;3.10;;;;;;;;;;5028591;28;20205;-76
2023/12/29 08:11:55;;;;;;;4.27;3.30;;;;;;;;;;5030522;28;20670;-78
2023/12/29 08:14:21;;;;;;;3.87;3.47;;;;;;;;;;5027418;28;20186;-78
2023/12/29 08:16:47;;;;;;;6.70;3.70;;;;;;;;;;5030242;28;20233;-77
2023/12/29 08:19:15;;;;;;;3.97;3.10;;;;;;;;;;5031493;28;20199;-78
2023/12/29 08:21:41;;;;;;;3.77;3.27;;;;;;;;;;5029002;28;20245;-77
2023/12/29 08:24:07;;;;;;;3.63;3.20;;;;;;;;;;5029506;28;20214;-77
2023/12/29 08:26:34;;;;;;;4.50;3.53;;;;;;;;;;5028726;28;20182;-76
2023/12/29 08:29:00;;;;;;;5.63;3.67;;;;;;;;;;5030208;28;20183;-77
2023/12/29 08:31:28;;;;;;;4.10;3.70;;;;;;;;;;5010405;28;20199;-77
2023/12/29 08:33:54;;;;;;;3.73;3.20;;;;;;;;;;5043633;28;20186;-77
2023/12/29 08:36:21;;;;;;;4.30;3.70;;;;;;;;;;5027132;28;20674;-77
2023/12/29 08:38:47;;;;;;;3.87;3.57;;;;;;;;;;5026675;28;20197;-77
2023/12/29 08:41:14;;;;;;;4.53;3.93;;;;;;;;;;5027791;28;20690;-77
2023/12/29 08:43:40;;;;;;;5.73;4.00;;;;;;;;;;5026045;28;20210;-78
2023/12/29 08:46:06;;;;;;;5.30;3.70;;;;;;;;;;5029660;28;20468;-77
2023/12/29 08:48:34;;;;;;;5.03;4.10;;;;;;;;;;5028993;28;20229;-77
2023/12/29 08:51:01;;;;;;;4.33;3.73;;;;;;;;;;5026324;28;20229;-77
2023/12/29 08:53:27;;;;;;;4.37;3.73;;;;;;;;;;5029396;28;20232;-77
2023/12/29 08:55:53;;;;;;;4.57;3.77;;;;;;;;;;5029569;28;20191;-77
2023/12/29 08:58:19;;;;;;;4.30;3.50;;;;;;;;;;5027585;28;20542;-77
2023/12/29 09:00:45;;;;;;;5.23;4.13;;;;;;;;;;5023717;28;20733;-77
2023/12/29 09:03:11;;;;;;;5.37;4.80;;;;;;;;;;5026712;28;20218;-77
2023/12/29 09:05:37;;;;;;;4.50;3.90;;;;;;;;;;5023297;28;20219;-77
2023/12/29 09:08:04;;;;;;;5.20;4.40;;;;;;;;;;5031042;28;20639;-77
2023/12/29 09:10:30;;;;;;;6.10;4.33;;;;;;;;;;5029519;28;20186;-77
2023/12/29 09:12:56;;;;;;;5.43;4.40;;;;;;;;;;5022231;28;20624;-76
2023/12/29 09:15:23;;;;;;;5.50;4.17;;;;;;;;;;5018023;28;20286;-77
2023/12/29 09:17:49;;;;;;;5.57;3.60;;;;;;;;;;5012530;28;20231;-77
2023/12/29 09:20:15;;;;;;;6.20;5.00;;;;;;;;;;5021375;28;20558;-77
2023/12/29 09:22:41;;;;;;;6.33;4.20;;;;;;;;;;5026788;28;20740;-76
2023/12/29 09:25:07;;;;;;;5.97;4.13;;;;;;;;;;5018234;28;20240;-77
2023/12/29 09:27:34;;;;;;;4.40;4.00;;;;;;;;;;5027419;28;20273;-76
2023/12/29 09:30:00;;;;;;;4.63;4.10;;;;;;;;;;5008469;28;20206;-77
2023/12/29 09:32:26;;;;;;;4.40;4.00;;;;;;;;;;5025730;28;20205;-76
2023/12/29 09:34:53;;;;;;;5.23;4.40;;;;;;;;;;5022893;28;20548;-77
2023/12/29 09:37:19;;;;;;;5.43;4.83;;;;;;;;;;5025049;28;20643;-77
2023/12/29 09:39:45;;;;;;;6.13;4.73;;;;;;;;;;5026118;28;20182;-77
2023/12/29 09:42:14;;;;;;;4.50;4.07;;;;;;;;;;5025839;28;20202;-77
2023/12/29 09:44:40;;;;;;;5.87;4.40;;;;;;;;;;5024928;28;20659;-81
2023/12/29 09:47:08;;;;;;;5.27;4.43;;;;;;;;;;5022006;28;20269;-76
2023/12/29 09:49:39;;;;;;;5.70;4.17;;;;;;;;;;5025710;28;20237;-77
2023/12/29 09:52:07;;;;;;;4.93;4.40;;;;;;;;;;5021830;28;20245;-76
2023/12/29 09:54:34;;;;;;;5.57;4.33;;;;;;;;;;5021785;28;20176;-78
2023/12/29 09:57:00;;;;;;;5.53;4.63;;;;;;;;;;5024343;28;20269;-76
2023/12/29 09:59:27;;;;;;;5.03;4.33;;;;;;;;;;5008957;28;20186;-83
2023/12/29 10:01:54;;;;;;;5.87;5.27;;;;;;;;;;5024319;28;20502;-83
2023/12/29 10:04:20;;;;;;;5.40;4.50;;;;;;;;;;5025909;28;20252;-81
2023/12/29 10:06:48;;;;;;;5.07;4.57;;;;;;;;;;5024183;28;20183;-80
2023/12/29 10:09:15;;;;;;;5.27;4.20;;;;;;;;;;5025929;28;20218;-81
2023/12/29 10:11:43;;;;;;;4.43;4.00;;;;;;;;;;5025810;28;20209;-79
2023/12/29 10:14:20;;;;;;;4.20;3.80;;;;;;;;;;5010376;28;20252;-80
2023/12/29 10:16:50;;;;;;;4.00;3.60;;;;;;;;;;5023239;28;20182;-80
2023/12/29 10:19:42;;;;;;;6.93;3.63;;;;;;;;;;5026863;28;20227;-81
2023/12/29 10:22:32;;;;;;;3.87;3.47;;;;;;;;;;5008967;28;20281;-80
2023/12/29 10:24:59;;;;;;;4.77;3.80;;;;;;;;;;5023612;28;20183;-81
2023/12/29 10:27:26;;;;;;;4.43;3.40;;;;;;;;;;5026167;28;20183;-81
2023/12/29 10:29:52;;;;;;;3.30;3.00;;;;;;;;;;5024027;28;20229;-81
2023/12/29 10:32:18;;;;;;;10.63;6.37;;;;;;;;;;5025063;28;20219;-80
2023/12/29 10:34:45;;;;;;;5.07;2.63;;;;;;;;;;5021833;28;20239;-81
2023/12/29 10:37:14;;;;;;;4.13;2.40;;;;;;;;;;5025349;28;20572;-81
2023/12/29 10:39:55;;;;;;;4.27;2.50;;;;;;;;;;5020861;28;20272;-80
2023/12/29 10:42:21;;;;;;;3.07;2.70;;;;;;;;;;5010380;28;20247;-81
2023/12/29 10:44:48;;;;;;;3.50;2.70;;;;;;;;;;5023807;28;20620;-81
2023/12/29 10:47:14;;;;;;;3.97;2.47;;;;;;;;;;5025464;28;20556;-81
2023/12/29 10:49:42;;;;;;;3.03;2.20;;;;;;;;;;5010638;28;20324;-81
2023/12/29 10:52:13;;;;;;;3.17;2.30;;;;;;;;;;5026090;28;20804;-81
2023/12/29 10:54:39;;;;;;;4.03;2.60;;;;;;;;;;5026524;28;20194;-81
2023/12/29 10:57:05;;;;;;;2.70;2.47;;;;;;;;;;5027210;28;20726;-81
2023/12/29 10:59:31;;;;;;;3.13;2.63;;;;;;;;;;5007512;28;20198;-81
2023/12/29 11:02:02;;;;;;;2.93;2.43;;;;;;;;;;5008158;28;20678;-81
2023/12/29 11:04:28;;;;;;;3.97;2.60;;;;;;;;;;5018420;28;20215;-81
2023/12/29 11:06:54;;;;;;;3.40;2.50;;;;;;;;;;5024534;28;20186;-81
2023/12/29 11:09:30;;;;;;;2.97;2.50;;;;;;;;;;5024596;28;20174;-80
2023/12/29 11:12:01;;;;;;;2.43;2.00;;;;;;;;;;5024198;28;20914;-80
2023/12/29 11:14:30;;;;;;;2.67;1.57;;;;;;;;;;5026227;28;20717;-81
2023/12/29 11:16:57;;;;;;;3.60;1.70;;;;;;;;;;5007427;28;20199;-80
2023/12/29 11:19:23;;;;;;;1.73;1.27;;;;;;;;;;5024832;28;20191;-80
2023/12/29 11:21:53;;;;;;;3.23;1.80;;;;;;;;;;5009290;28;20215;-80
2023/12/29 11:24:19;;;;;;;3.70;1.40;;;;;;;;;;5022661;28;20206;-80
2023/12/29 11:26:45;;;;;;;2.63;1.30;;;;;;;;;;5026803;28;20943;-81
2023/12/29 11:29:12;;;;;;;1.33;1.00;;;;;;;;;;5025451;28;20180;-80
2023/12/29 11:31:39;;;;;;;2.60;1.40;;;;;;;;;;5021106;28;20228;-81
2023/12/29 11:34:08;;;;;;;6.77;1.47;;;;;;;;;;5030672;28;20186;-82
2023/12/29 11:36:36;;;;;;;3.90;1.70;;;;;;;;;;5011318;28;20577;-78
2023/12/29 11:39:06;;;;;;;2.03;1.20;;;;;;;;;;5031493;28;20192;-78
2023/12/29 11:41:42;;;;;;;4.27;1.47;;;;;;;;;;5027901;28;20219;-76
2023/12/29 11:44:09;;;;;;;4.67;1.40;;;;;;;;;;5027018;28;20242;-80
2023/12/29 11:46:35;;;;;;;3.20;1.10;;;;;;;;;;5033349;28;20191;-80
2023/12/29 11:49:04;;;;;;;3.07;1.40;;;;;;;;;;5033767;28;20191;-80
2023/12/29 11:51:33;;;;;;;4.87;1.60;;;;;;;;;;5046640;28;20200;-82
2023/12/29 11:53:59;;;;;;;2.87;1.30;;;;;;;;;;5047111;28;20192;-82
2023/12/29 11:56:31;;;;;;;2.90;1.33;;;;;;;;;;5042191;28;20589;-82
2023/12/29 11:58:58;;;;;;;1.40;1.03;;;;;;;;;;5033549;28;20195;-80
2023/12/29 12:01:36;;;;;;;2.33;1.33;;;;;;;;;;5028357;28;20214;-79
2023/12/29 12:04:02;;;;;;;1.57;1.20;;;;;;;;;;5030829;28;20228;-79
2023/12/29 12:06:38;;;;;;;2.10;1.37;;;;;;;;;;5028294;28;20196;-78
2023/12/29 12:09:24;;;;;;;2.13;1.30;;;;;;;;;;5016790;28;20241;-82
2023/12/29 12:11:50;;;;;;;2.43;1.50;;;;;;;;;;5031748;28;20253;-79
2023/12/29 12:14:36;;;;;;;2.00;1.30;;;;;;;;;;5015849;28;20650;-82
2023/12/29 12:17:02;;;;;;;1.23;1.13;;;;;;;;;;5032285;28;20246;-83
2023/12/29 12:19:35;;;;;;;1.77;1.20;;;;;;;;;;5014841;28;20293;-78
2023/12/29 12:22:02;;;;;;;2.53;1.50;;;;;;;;;;5029618;28;20210;-79
2023/12/29 12:24:28;;;;;;;2.50;1.57;;;;;;;;;;5028027;28;20222;-81
2023/12/29 12:26:58;;;;;;;2.10;1.37;;;;;;;;;;5013602;28;20816;-81
2023/12/29 12:29:25;;;;;;;1.67;1.30;;;;;;;;;;5032805;28;20187;-81
2023/12/29 12:31:54;;;;;;;2.13;1.30;;;;;;;;;;5029666;28;20302;-80
2023/12/29 12:34:21;;;;;;;2.07;1.20;;;;;;;;;;5029308;28;20203;-80
2023/12/29 12:36:51;;;;;;;2.70;1.33;;;;;;;;;;5030483;28;20288;-80
2023/12/29 12:39:17;;;;;;;2.43;1.20;;;;;;;;;;5031921;28;20890;-80
2023/12/29 12:41:43;;;;;;;1.10;1.00;;;;;;;;;;5029408;28;20211;-79
2023/12/29 12:44:13;;;;;;;2.13;1.30;;;;;;;;;;5010642;28;20208;-80
2023/12/29 12:46:46;;;;;;;4.10;1.23;;;;;;;;;;5029059;28;20183;-79
2023/12/29 12:49:13;;;;;;;2.07;1.30;;;;;;;;;;5029241;28;20189;-80
2023/12/29 12:51:39;;;;;;;1.53;1.07;;;;;;;;;;5028222;28;20203;-81
2023/12/29 12:54:05;;;;;;;1.20;1.10;;;;;;;;;;5029323;28;20188;-80
2023/12/29 12:56:31;;;;;;;2.67;1.20;;;;;;;;;;5029883;28;20310;-80
2023/12/29 12:58:58;;;;;;;3.97;1.10;;;;;;;;;;5012201;28;20717;-79
2023/12/29 13:01:25;;;;;;;1.10;1.00;;;;;;;;;;5028965;28;20920;-80
2023/12/29 13:03:51;;;;;;;2.27;1.30;;;;;;;;;;5028938;28;20209;-79
2023/12/29 13:06:19;;;;;;;1.87;1.13;;;;;;;;;;5024148;28;20293;-80
2023/12/29 13:08:45;;;;;;;1.40;1.20;;;;;;;;;;5027505;28;20189;-74
2023/12/29 13:11:12;;;;;;;1.57;1.17;;;;;;;;;;5026662;28;20234;-75
2023/12/29 13:13:39;;;;;;;1.23;1.13;;;;;;;;;;5022114;28;20275;-75
2023/12/29 13:16:06;;;;;;;1.60;1.10;;;;;;;;;;5029183;28;20200;-77
2023/12/29 13:18:33;;;;;;;1.27;1.00;;;;;;;;;;5024793;28;20194;-75
2023/12/29 13:21:00;;;;;;;0.80;0.80;;;;;;;;;;5006887;28;20213;-76
2023/12/29 13:23:27;;;;;;;3.53;1.07;;;;;;;;;;5030803;28;20229;-75
2023/12/29 13:26:06;;;;;;;2.90;1.20;;;;;;;;;;5027750;28;20405;-76
2023/12/29 13:28:33;;;;;;;3.40;1.30;;;;;;;;;;5027909;28;20186;-76
2023/12/29 13:30:59;;;;;;;1.43;1.00;;;;;;;;;;5023770;28;20198;-75
2023/12/29 13:33:30;;;;;;;1.80;1.20;;;;;;;;;;5027725;28;20571;-81
2023/12/29 13:36:04;;;;;;;2.07;1.13;;;;;;;;;;5028323;28;20198;-80
2023/12/29 13:38:34;;;;;;;3.37;1.20;;;;;;;;;;5012212;28;20197;-80
2023/12/29 13:41:08;;;;;;;1.73;1.30;;;;;;;;;;5027339;28;20593;-80
2023/12/29 13:43:36;;;;;;;1.60;1.40;;;;;;;;;;5011468;28;20305;-80
2023/12/29 13:46:03;;;;;;;1.90;1.50;;;;;;;;;;5027772;28;20599;-80
2023/12/29 13:48:29;;;;;;;1.53;1.37;;;;;;;;;;5028200;28;20707;-80
2023/12/29 13:50:56;;;;;;;1.70;1.60;;;;;;;;;;5028488;28;20260;-80
2023/12/29 13:53:22;;;;;;;2.13;1.63;;;;;;;;;;5029551;28;20247;-80
2023/12/29 13:55:49;;;;;;;2.27;1.77;;;;;;;;;;5028960;28;20188;-80
2023/12/29 13:58:16;;;;;;;2.40;1.70;;;;;;;;;;5029484;28;21206;-80
2023/12/29 14:00:43;;;;;;;2.57;1.70;;;;;;;;;;5013160;28;20225;-80
2023/12/29 14:03:28;;;;;;;3.03;2.30;;;;;;;;;;5028496;28;20266;-85
2023/12/29 14:06:04;;;;;;;3.77;2.27;;;;;;;;;;5009216;28;20616;-84
2023/12/29 14:08:34;;;;;;;2.47;1.77;;;;;;;;;;5027631;28;20190;-83
2023/12/29 14:11:01;;;;;;;2.97;1.60;;;;;;;;;;5031516;28;20287;-81
2023/12/29 14:13:28;;;;;;;2.00;1.67;;;;;;;;;;5027685;28;20191;-82
2023/12/29 14:15:54;;;;;;;2.20;1.40;;;;;;;;;;5043313;28;20660;-80
2023/12/29 14:18:20;;;;;;;1.90;1.50;;;;;;;;;;5027194;28;20259;-77
2023/12/29 14:20:46;;;;;;;2.37;1.60;;;;;;;;;;5028023;28;20192;-76
2023/12/29 14:23:13;;;;;;;2.13;1.60;;;;;;;;;;5026943;28;20209;-80
2023/12/29 14:25:39;;;;;;;1.50;1.40;;;;;;;;;;5034195;28;20183;-80
2023/12/29 14:28:15;;;;;;;1.60;1.50;;;;;;;;;;5031806;28;20184;-80
2023/12/29 14:30:41;;;;;;;2.07;1.70;;;;;;;;;;5023996;28;20179;-79
2023/12/29 14:33:07;;;;;;;2.67;1.60;;;;;;;;;;5028833;28;20199;-81
2023/12/29 14:35:34;;;;;;;2.37;1.57;;;;;;;;;;5025280;28;20187;-78
2023/12/29 14:38:00;;;;;;;2.10;1.60;;;;;;;;;;5027074;28;20582;-77
2023/12/29 14:40:27;;;;;;;1.70;1.33;;;;;;;;;;5026641;28;20651;-79
2023/12/29 14:42:53;;;;;;;1.70;1.60;;;;;;;;;;5029277;28;20210;-81